createdAt,value
2023-04-18T00:02:45.729Z,8.35
2023-04-18T00:07:57.033Z,8.37
2023-04-18T00:13:02.229Z,8.28
2023-04-18T00:18:08.565Z,8.43
2023-04-18T00:23:17.320Z,8.42
2023-04-18T00:28:24.867Z,8.27
2023-04-18T00:33:30.042Z,8.33
2023-04-18T00:38:40.779Z,8.14
2023-04-18T00:43:49.812Z,8.29
2023-04-18T00:48:54.962Z,8.24
2023-04-18T00:54:02.889Z,8.41
2023-04-18T00:59:09.121Z,8.35
2023-04-18T01:04:21.524Z,8.25
2023-04-18T01:09:31.527Z,8.25
2023-04-18T01:14:36.584Z,8.19
2023-04-18T01:19:41.768Z,8.33
2023-04-18T01:24:55.260Z,8.40
2023-04-18T01:30:01.717Z,8.32
2023-04-18T01:35:10.141Z,8.23
2023-04-18T01:40:18.262Z,8.16
2023-04-18T01:45:23.628Z,8.03
2023-04-18T01:50:34.469Z,7.92
2023-04-18T01:55:42.303Z,7.90
2023-04-18T02:00:47.634Z,7.77
2023-04-18T02:05:54.658Z,7.83
2023-04-18T02:11:05.568Z,7.78
2023-04-18T02:16:16.221Z,7.58
2023-04-18T02:21:22.179Z,7.69
2023-04-18T02:26:30.220Z,7.69
2023-04-18T02:31:38.624Z,7.89
2023-04-18T02:36:44.470Z,7.98
2023-04-18T02:41:52.736Z,7.76
2023-04-18T02:47:00.601Z,7.60
2023-04-18T02:52:07.232Z,7.58
2023-04-18T02:57:17.005Z,7.55
2023-04-18T03:02:41.084Z,7.56
2023-04-18T03:08:24.608Z,7.41
2023-04-18T03:13:36.539Z,7.48
2023-04-18T03:18:49.080Z,7.39
2023-04-18T03:23:58.679Z,7.42
2023-04-18T03:29:11.718Z,7.49
2023-04-18T03:34:21.291Z,7.55
2023-04-18T03:39:30.430Z,7.52
2023-04-18T03:44:39.506Z,7.44
2023-04-18T03:49:48.170Z,7.46
2023-04-18T03:54:55.438Z,7.43
2023-04-18T04:00:15.687Z,7.29
2023-04-18T04:05:20.964Z,7.25
2023-04-18T04:10:28.871Z,7.21
2023-04-18T04:15:41.859Z,7.27
2023-04-18T04:20:57.671Z,7.36
2023-04-18T04:26:16.043Z,7.15
2023-04-18T04:31:33.112Z,7.20
2023-04-18T04:36:39.987Z,7.30
2023-04-18T04:41:54.389Z,7.01
2023-04-18T04:47:09.295Z,7.15
2023-04-18T04:52:17.386Z,7.01
2023-04-18T04:57:23.654Z,7.35
2023-04-18T05:02:37.082Z,7.02
2023-04-18T05:07:42.715Z,6.99
2023-04-18T05:13:01.565Z,7.21
2023-04-18T05:18:09.732Z,7.01
2023-04-18T05:23:14.817Z,7.14
2023-04-18T05:28:25.853Z,7.16
2023-04-18T05:33:35.172Z,7.00
2023-04-18T05:38:46.085Z,7.22
2023-04-18T05:44:04.957Z,7.08
2023-04-18T05:49:18.579Z,6.97
2023-04-18T05:54:25.431Z,7.03
2023-04-18T05:59:36.767Z,6.91
2023-04-18T06:04:49.300Z,7.17
2023-04-18T06:09:56.079Z,7.04
2023-04-18T06:15:03.638Z,6.87
2023-04-18T06:20:14.344Z,6.99
2023-04-18T06:25:19.715Z,6.94
2023-04-18T06:30:24.991Z,7.07
2023-04-18T06:35:35.592Z,7.54
2023-04-18T06:40:48.169Z,7.14
2023-04-18T06:45:56.521Z,7.50
2023-04-18T06:51:04.986Z,7.46
2023-04-18T06:56:13.684Z,7.57
2023-04-18T07:01:21.939Z,7.53
2023-04-18T07:06:30.251Z,7.50
2023-04-18T07:11:40.975Z,7.49
2023-04-18T07:16:49.160Z,7.46
2023-04-18T07:21:59.000Z,7.55
2023-04-18T07:27:05.020Z,7.58
2023-04-18T07:32:10.918Z,7.88
2023-04-18T07:37:19.593Z,7.80
2023-04-18T07:42:26.022Z,7.55
2023-04-18T07:47:33.812Z,7.65
2023-04-18T07:52:41.672Z,8.20
2023-04-18T07:57:50.739Z,8.31
2023-04-18T08:02:56.104Z,7.98
2023-04-18T08:08:04.145Z,7.95
2023-04-18T08:13:13.259Z,7.95
2023-04-18T08:18:20.123Z,7.92
2023-04-18T08:23:29.288Z,8.08
2023-04-18T08:28:46.283Z,7.95
2023-04-18T08:33:51.912Z,8.51
2023-04-18T08:38:59.700Z,8.37
2023-04-18T08:44:05.042Z,7.89
2023-04-18T08:49:17.455Z,8.27
2023-04-18T08:54:27.529Z,8.15
2023-04-18T08:59:37.885Z,8.24
2023-04-18T09:04:49.425Z,8.51
2023-04-18T09:10:01.216Z,8.82
2023-04-18T09:15:14.861Z,7.93
2023-04-18T09:20:34.992Z,8.33
2023-04-18T09:25:48.265Z,8.03
2023-04-18T09:30:55.416Z,8.30
2023-04-18T09:36:19.375Z,8.41
2023-04-18T09:41:27.765Z,8.41
2023-04-18T09:46:33.418Z,8.42
2023-04-18T09:51:39.564Z,8.68
2023-04-18T09:56:50.551Z,8.84
2023-04-18T10:01:57.905Z,8.54
2023-04-18T10:07:05.987Z,8.73
2023-04-18T10:12:15.300Z,8.64
2023-04-18T10:17:23.158Z,8.84
2023-04-18T10:22:31.021Z,8.76
2023-04-18T10:28:03.171Z,8.75
2023-04-18T10:33:31.883Z,9.15
2023-04-18T10:38:47.706Z,8.99
2023-04-18T10:44:18.545Z,9.25
2023-04-18T10:49:27.390Z,9.01
2023-04-18T10:54:40.275Z,9.14
2023-04-18T10:59:57.340Z,8.66
2023-04-18T11:05:05.107Z,8.57
2023-04-18T11:10:13.250Z,8.93
2023-04-18T11:15:29.168Z,8.87
2023-04-18T11:20:42.761Z,8.86
2023-04-18T11:25:49.643Z,8.71
2023-04-18T11:31:02.378Z,8.81
2023-04-18T11:36:12.474Z,8.83
2023-04-18T11:41:18.449Z,8.78
2023-04-18T11:46:27.804Z,8.71
2023-04-18T11:51:38.884Z,8.84
2023-04-18T11:56:51.034Z,8.64
2023-04-18T12:02:16.355Z,8.76
2023-04-18T12:07:37.936Z,8.94
2023-04-18T12:12:51.716Z,8.82
2023-04-18T12:18:01.462Z,8.86
2023-04-18T12:23:07.836Z,8.77
2023-04-18T12:28:20.289Z,8.88
2023-04-18T12:33:28.622Z,8.79
2023-04-18T12:38:33.992Z,8.85
2023-04-18T12:43:39.573Z,8.90
2023-04-18T12:48:49.627Z,8.73
2023-04-18T12:53:56.423Z,8.65
2023-04-18T12:59:03.824Z,8.61
2023-04-18T13:04:13.381Z,8.94
2023-04-18T13:09:19.231Z,9.01
2023-04-18T13:14:25.626Z,9.08
2023-04-18T13:19:33.570Z,9.07
2023-04-18T13:24:40.068Z,9.16
2023-04-18T13:29:48.100Z,9.18
2023-04-18T13:34:58.948Z,9.14
2023-04-18T13:40:07.076Z,9.17
2023-04-18T13:45:15.862Z,9.17
2023-04-18T13:50:23.679Z,9.20
2023-04-18T13:55:29.003Z,9.25
2023-04-18T14:00:34.896Z,9.29
2023-04-18T14:05:43.239Z,9.48
2023-04-18T14:10:48.391Z,9.32
2023-04-18T14:15:57.703Z,9.48
2023-04-18T14:21:07.804Z,9.55
2023-04-18T14:26:14.002Z,9.51
2023-04-18T14:31:19.527Z,9.35
2023-04-18T14:36:28.303Z,9.58
2023-04-18T14:41:33.486Z,9.52
2023-04-18T14:46:38.661Z,9.43
2023-04-18T14:51:46.826Z,9.30
2023-04-18T14:56:51.890Z,9.33
2023-04-18T15:01:57.133Z,9.51
2023-04-18T15:07:07.133Z,9.68
2023-04-18T15:12:12.913Z,9.93
2023-04-18T15:17:18.285Z,9.74
2023-04-18T15:22:26.168Z,9.57
2023-04-18T15:27:31.618Z,9.57
2023-04-18T15:32:37.109Z,9.53
2023-04-18T15:37:47.686Z,9.70
2023-04-18T15:42:55.644Z,9.63
2023-04-18T15:48:02.468Z,9.60
2023-04-18T15:53:10.940Z,9.59
2023-04-18T15:58:19.713Z,9.71
2023-04-18T16:03:28.372Z,9.76
2023-04-18T16:08:37.996Z,9.78
2023-04-18T16:13:45.911Z,9.77
2023-04-18T16:18:52.950Z,9.92
2023-04-18T16:24:01.474Z,10.04
2023-04-18T16:29:08.872Z,10.00
2023-04-18T16:34:16.358Z,10.08
2023-04-18T16:39:25.800Z,10.05
2023-04-18T16:44:30.993Z,9.95
2023-04-18T16:49:47.816Z,10.24
2023-04-18T16:54:55.624Z,10.43
2023-04-18T17:00:03.294Z,10.51
2023-04-18T17:05:14.298Z,10.39
2023-04-18T17:10:22.946Z,10.25
2023-04-18T17:15:31.554Z,10.22
2023-04-18T17:20:38.809Z,10.37
2023-04-18T17:25:50.855Z,10.34
2023-04-18T17:30:58.996Z,10.27
2023-04-18T17:36:06.119Z,10.42
2023-04-18T17:41:17.149Z,10.20
2023-04-18T17:46:24.085Z,9.80
2023-04-18T17:51:31.870Z,9.86
2023-04-18T17:56:39.735Z,10.06
2023-04-18T18:01:45.963Z,10.25
2023-04-18T18:07:04.879Z,10.35
2023-04-18T18:12:13.840Z,10.40
2023-04-18T18:17:19.682Z,10.42
2023-04-18T18:22:26.376Z,10.48
2023-04-18T18:27:34.822Z,10.41
2023-04-18T18:32:44.968Z,10.40
2023-04-18T18:37:50.333Z,10.43
2023-04-18T18:43:00.236Z,10.31
2023-04-18T18:48:07.535Z,10.23
2023-04-18T18:53:18.252Z,10.31
2023-04-18T18:58:26.641Z,10.36
2023-04-18T19:03:38.111Z,10.16
2023-04-18T19:08:44.578Z,10.14
2023-04-18T19:14:00.177Z,10.26
2023-04-18T19:19:05.997Z,10.01
2023-04-18T19:24:12.204Z,10.43
2023-04-18T19:29:21.326Z,10.34
2023-04-18T19:34:27.093Z,10.16
2023-04-18T19:39:33.521Z,10.09
2023-04-18T19:44:43.997Z,10.32
2023-04-18T19:49:50.170Z,9.97
2023-04-18T19:54:56.652Z,10.21
2023-04-18T20:00:09.210Z,10.42
2023-04-18T20:05:21.939Z,10.36
2023-04-18T20:10:28.016Z,10.12
2023-04-18T20:15:37.039Z,10.08
2023-04-18T20:20:42.597Z,10.12
2023-04-18T20:25:50.333Z,9.93
2023-04-18T20:31:02.704Z,10.19
2023-04-18T20:36:08.631Z,10.21
2023-04-18T20:41:21.066Z,10.34
2023-04-18T20:46:30.172Z,10.20
2023-04-18T20:51:40.078Z,10.22
2023-04-18T20:56:45.579Z,10.27
2023-04-18T21:01:53.423Z,10.16
2023-04-18T21:06:58.496Z,10.03
2023-04-18T21:12:03.898Z,9.83
2023-04-18T21:17:17.184Z,9.96
2023-04-18T21:22:22.305Z,9.89
2023-04-18T21:27:29.138Z,9.90
2023-04-18T21:32:36.822Z,10.01
2023-04-18T21:37:44.397Z,10.12
2023-04-18T21:42:51.114Z,10.00
2023-04-18T21:47:59.086Z,10.14
2023-04-18T21:53:04.507Z,10.15
2023-04-18T21:58:13.112Z,9.95
2023-04-18T22:03:21.022Z,9.95
2023-04-18T22:08:26.589Z,10.00
2023-04-18T22:13:33.310Z,10.16
2023-04-18T22:18:44.473Z,10.33
2023-04-18T22:23:49.540Z,10.26
2023-04-18T22:28:56.765Z,10.37
2023-04-18T22:34:07.206Z,10.27
2023-04-18T22:39:15.097Z,10.40
2023-04-18T22:44:20.197Z,10.30
2023-04-18T22:49:27.897Z,10.28
2023-04-18T22:54:33.209Z,10.35
2023-04-18T22:59:39.393Z,10.43
2023-04-18T23:04:47.288Z,10.31
2023-04-18T23:09:52.472Z,10.29
2023-04-18T23:14:57.731Z,10.35
2023-04-18T23:20:07.031Z,10.24
2023-04-18T23:25:12.779Z,10.25
2023-04-18T23:30:17.918Z,10.10
2023-04-18T23:35:25.893Z,10.30
2023-04-18T23:40:31.245Z,10.22
2023-04-18T23:45:36.769Z,10.21
2023-04-18T23:50:48.426Z,10.25
2023-04-18T23:55:53.841Z,10.12
